Time;durP1;ratioP1;P1;durP2;ratioP2;P2;SDS_P1;SDS_P2;PMS_P1;PMS_P2;Temp;Humidity;BMP_temperature;BMP_pressure;BME280_temperature;BME280_humidity;BME280_pressure;Samples;Min_cycle;Max_cycle;Signal;HPM_P1;HPM_P2
2022/11/08 00:01:30;;;;;;;8.77;4.77;;;10.70;99.90;;;;;;4993805;28;20214;-68
2022/11/08 00:03:07;;;;;;;5.90;5.50;;;10.90;99.90;;;;;;5029821;28;20188;-68
2022/11/08 00:13:58;;;;;;;6.13;5.63;;;11.40;99.90;;;;;;5025433;28;20250;-68
2022/11/08 00:16:24;;;;;;;6.07;4.97;;;11.50;99.90;;;;;;5013190;28;20208;-68
2022/11/08 00:18:50;;;;;;;5.30;4.80;;;11.60;99.90;;;;;;5020173;28;20191;-68
2022/11/08 00:21:15;;;;;;;5.37;4.60;;;11.70;99.90;;;;;;5032296;28;20184;-68
2022/11/08 00:23:42;;;;;;;5.33;4.87;;;11.70;99.90;;;;;;5025633;28;20180;-68
2022/11/08 00:26:08;;;;;;;5.23;4.90;;;11.70;99.90;;;;;;5011457;28;20187;-68
2022/11/08 00:28:33;;;;;;;5.97;4.70;;;11.80;99.90;;;;;;5016752;28;20207;-68
2022/11/08 00:31:06;;;;;;;5.53;5.00;;;11.80;99.90;;;;;;5030137;28;20549;-68
2022/11/08 00:33:32;;;;;;;5.70;5.17;;;11.90;99.90;;;;;;5011592;28;20242;-68
2022/11/08 00:35:58;;;;;;;7.37;5.50;;;11.90;99.90;;;;;;5013305;28;20204;-68
2022/11/08 00:38:23;;;;;;;4.87;4.57;;;11.90;99.90;;;;;;5032257;28;20203;-68
2022/11/08 00:40:49;;;;;;;6.77;4.43;;;11.90;99.90;;;;;;5032143;28;20179;-68
2022/11/08 00:43:15;;;;;;;7.50;4.60;;;12.00;99.90;;;;;;5013032;28;20191;-68
2022/11/08 00:45:40;;;;;;;7.37;4.53;;;12.00;99.90;;;;;;5012580;28;20184;-68
2022/11/08 00:48:06;;;;;;;4.93;4.40;;;12.10;99.90;;;;;;5028945;28;20199;-68
2022/11/08 00:50:31;;;;;;;5.07;4.67;;;12.10;99.90;;;;;;5032122;28;20661;-68
2022/11/08 00:52:57;;;;;;;7.87;4.83;;;12.20;99.90;;;;;;5016336;28;20262;-68
2022/11/08 00:55:22;;;;;;;4.40;4.10;;;12.20;99.90;;;;;;5016450;28;20191;-68
2022/11/08 00:57:48;;;;;;;6.07;4.87;;;12.30;99.90;;;;;;5030773;28;20179;-68
2022/11/08 01:00:14;;;;;;;8.27;4.63;;;12.30;99.90;;;;;;5019687;28;20188;-67
2022/11/08 01:02:39;;;;;;;5.90;4.40;;;12.40;99.90;;;;;;5011012;28;20183;-67
2022/11/08 01:05:05;;;;;;;5.67;4.27;;;12.40;99.90;;;;;;5021730;28;20180;-67
2022/11/08 01:07:30;;;;;;;4.80;4.50;;;12.50;99.90;;;;;;5031036;28;20548;-68
2022/11/08 01:09:56;;;;;;;6.47;4.67;;;12.50;99.90;;;;;;5023577;28;20306;-68
2022/11/08 01:12:22;;;;;;;4.57;4.13;;;12.60;99.90;;;;;;5012129;28;20642;-69
2022/11/08 01:14:47;;;;;;;5.20;4.73;;;12.60;99.90;;;;;;5018251;28;20191;-69
2022/11/08 01:17:13;;;;;;;4.73;4.40;;;12.60;99.90;;;;;;5031632;28;20219;-68
2022/11/08 01:19:38;;;;;;;6.20;4.30;;;12.60;99.90;;;;;;5026599;28;20196;-68
2022/11/08 01:22:04;;;;;;;6.10;4.23;;;12.60;99.90;;;;;;5011789;28;20176;-68
2022/11/08 01:24:29;;;;;;;4.30;4.10;;;12.60;99.90;;;;;;5014629;28;20186;-68
2022/11/08 01:26:55;;;;;;;4.47;4.27;;;12.60;99.90;;;;;;5029752;28;20538;-68
2022/11/08 01:29:20;;;;;;;4.37;4.03;;;12.60;99.90;;;;;;5011396;28;20200;-68
2022/11/08 01:31:46;;;;;;;4.13;3.83;;;12.60;99.90;;;;;;5011955;28;20168;-69
2022/11/08 01:34:12;;;;;;;3.93;3.73;;;12.60;99.90;;;;;;5030163;28;20198;-68
2022/11/08 01:36:37;;;;;;;4.20;4.00;;;12.60;99.90;;;;;;5031560;28;20211;-68
2022/11/08 01:39:03;;;;;;;4.57;4.17;;;12.60;99.90;;;;;;5013991;28;20273;-69
2022/11/08 01:41:28;;;;;;;6.40;3.90;;;12.60;99.90;;;;;;5011528;28;20264;-69
2022/11/08 01:43:56;;;;;;;4.50;4.20;;;12.60;99.90;;;;;;5026705;28;20179;-68
2022/11/08 01:46:34;;;;;;;4.47;4.23;;;12.60;99.90;;;;;;5029988;28;20188;-68
2022/11/08 01:49:15;;;;;;;4.63;4.33;;;12.60;99.90;;;;;;5015572;28;20195;-68
2022/11/08 01:52:02;;;;;;;4.23;3.93;;;12.60;99.90;;;;;;5011755;28;20180;-69
2022/11/08 01:54:43;;;;;;;4.37;4.07;;;12.50;99.90;;;;;;5022394;28;20318;-68
2022/11/08 01:57:12;;;;;;;4.93;4.40;;;12.40;99.90;;;;;;5043281;28;20213;-68
2022/11/08 01:59:40;;;;;;;5.03;4.73;;;12.40;99.90;;;;;;5043211;28;20250;-68
2022/11/08 02:02:08;;;;;;;4.47;4.07;;;12.30;99.90;;;;;;5011482;28;20177;-68
2022/11/08 02:04:34;;;;;;;5.23;4.93;;;12.30;99.90;;;;;;5043066;28;20191;-68
2022/11/08 02:07:01;;;;;;;4.50;4.20;;;12.30;99.90;;;;;;5011426;28;20225;-68
2022/11/08 02:09:27;;;;;;;5.23;4.37;;;12.30;99.90;;;;;;5027317;28;20671;-68
2022/11/08 02:11:52;;;;;;;4.87;4.53;;;12.30;99.90;;;;;;5031196;28;20269;-68
2022/11/08 02:14:18;;;;;;;4.67;4.27;;;12.30;99.90;;;;;;5014983;28;20188;-69
2022/11/08 02:16:44;;;;;;;4.73;4.20;;;12.30;99.90;;;;;;5011529;28;20204;-68
2022/11/08 02:19:16;;;;;;;9.47;5.43;;;12.30;99.90;;;;;;5023756;28;20215;-68
2022/11/08 02:21:53;;;;;;;4.83;4.53;;;12.30;99.90;;;;;;5029806;28;20270;-68
2022/11/08 02:24:19;;;;;;;6.33;4.50;;;12.30;99.90;;;;;;5017275;28;20272;-68
2022/11/08 02:26:45;;;;;;;4.50;4.10;;;12.30;99.90;;;;;;5011402;28;20632;-68
2022/11/08 02:29:33;;;;;;;4.90;4.60;;;12.20;99.90;;;;;;5022555;28;20689;-68
2022/11/08 02:32:00;;;;;;;5.20;4.90;;;12.20;99.90;;;;;;5031021;28;20175;-68
2022/11/08 02:34:33;;;;;;;4.73;4.53;;;12.10;99.90;;;;;;5017251;28;20188;-68
2022/11/08 02:37:01;;;;;;;4.47;4.17;;;12.10;99.90;;;;;;5011245;28;20200;-69
2022/11/08 02:39:28;;;;;;;5.10;4.70;;;12.10;99.90;;;;;;5026179;28;20209;-69
2022/11/08 02:41:54;;;;;;;7.57;4.97;;;12.00;99.90;;;;;;5033313;28;20186;-69
2022/11/08 02:44:20;;;;;;;4.60;4.40;;;12.00;99.90;;;;;;5022573;28;20184;-69
2022/11/08 02:46:46;;;;;;;4.90;4.50;;;11.90;99.90;;;;;;5014906;28;20226;-69
2022/11/08 02:49:11;;;;;;;6.00;5.53;;;11.80;99.90;;;;;;5029195;28;20688;-69
2022/11/08 02:51:37;;;;;;;5.97;5.30;;;11.70;99.90;;;;;;5034492;28;20171;-69
2022/11/08 02:54:03;;;;;;;6.93;5.80;;;11.70;99.90;;;;;;5020589;28;20245;-69
2022/11/08 02:56:29;;;;;;;5.00;4.70;;;11.60;99.90;;;;;;5024479;28;20572;-69
2022/11/08 02:58:54;;;;;;;5.90;5.30;;;11.50;99.90;;;;;;5034177;28;20198;-69
2022/11/08 03:01:20;;;;;;;5.80;5.50;;;11.50;99.90;;;;;;5023760;28;20180;-68
2022/11/08 03:03:46;;;;;;;4.80;4.57;;;11.40;99.90;;;;;;5014443;28;20223;-69
2022/11/08 03:06:11;;;;;;;4.20;3.93;;;11.40;99.90;;;;;;5022533;28;20650;-69
2022/11/08 03:08:37;;;;;;;4.90;4.50;;;11.40;99.90;;;;;;5033938;28;20645;-69
2022/11/08 03:11:02;;;;;;;5.10;4.70;;;11.30;99.90;;;;;;5026930;28;20445;-69
2022/11/08 03:13:28;;;;;;;5.83;4.40;;;11.30;99.90;;;;;;5014356;28;20195;-69
2022/11/08 03:15:53;;;;;;;5.37;5.07;;;11.20;99.90;;;;;;5017494;28;20199;-69
2022/11/08 03:18:19;;;;;;;5.20;4.63;;;11.20;99.90;;;;;;5033899;28;20598;-69
2022/11/08 03:20:44;;;;;;;5.27;4.60;;;11.20;99.90;;;;;;5029261;28;20232;-69
2022/11/08 03:23:10;;;;;;;5.47;5.03;;;11.10;99.90;;;;;;5013933;28;20184;-69
2022/11/08 03:25:36;;;;;;;7.30;5.77;;;11.10;99.90;;;;;;5014934;28;20168;-69
2022/11/08 03:28:02;;;;;;;4.80;4.60;;;11.10;99.90;;;;;;5033901;28;20192;-69
2022/11/08 03:30:28;;;;;;;4.90;4.60;;;11.00;99.90;;;;;;5031996;28;20237;-69
2022/11/08 03:32:53;;;;;;;9.13;5.20;;;11.00;99.90;;;;;;5014264;28;20550;-69
2022/11/08 03:35:19;;;;;;;5.13;4.83;;;10.90;99.90;;;;;;5014066;28;20184;-69
2022/11/08 03:37:55;;;;;;;7.20;4.97;;;10.90;99.90;;;;;;5031181;28;20210;-69
2022/11/08 03:40:21;;;;;;;5.27;4.90;;;10.90;99.90;;;;;;5033239;28;20571;-69
2022/11/08 03:42:47;;;;;;;5.57;4.83;;;10.80;99.90;;;;;;5015829;28;20187;-69
2022/11/08 03:45:14;;;;;;;5.53;5.07;;;10.80;99.90;;;;;;5028500;28;20562;-69
2022/11/08 03:47:42;;;;;;;5.27;4.77;;;10.70;99.90;;;;;;5033423;28;20182;-69
2022/11/08 03:50:08;;;;;;;5.13;4.83;;;10.70;99.90;;;;;;5017835;28;20206;-69
2022/11/08 03:52:46;;;;;;;5.90;5.40;;;10.70;99.90;;;;;;5012380;28;20191;-68
2022/11/08 03:55:12;;;;;;;5.50;5.03;;;10.60;99.90;;;;;;5044852;28;20194;-68
2022/11/08 03:57:42;;;;;;;5.87;5.37;;;10.60;99.90;;;;;;5012035;28;20219;-68
2022/11/08 04:00:10;;;;;;;5.93;5.07;;;10.60;99.90;;;;;;5025696;28;20184;-68
2022/11/08 04:02:35;;;;;;;7.90;5.20;;;10.60;99.90;;;;;;5033138;28;20199;-68
2022/11/08 04:05:01;;;;;;;5.20;4.90;;;10.60;99.90;;;;;;5021340;28;20241;-68
2022/11/08 04:07:27;;;;;;;7.57;5.50;;;10.60;99.90;;;;;;5016607;28;20183;-68
2022/11/08 04:09:54;;;;;;;6.47;5.27;;;10.60;99.90;;;;;;5032475;28;20226;-68
2022/11/08 04:15:16;;;;;;;6.23;5.80;;;10.60;99.90;;;;;;5012122;28;20191;-68
2022/11/08 04:23:27;;;;;;;9.70;4.90;;;10.60;99.90;;;;;;5016541;28;20234;-68
2022/11/08 04:25:58;;;;;;;15.63;6.13;;;10.60;99.90;;;;;;5012924;28;20180;-68
2022/11/08 04:28:25;;;;;;;5.40;5.10;;;10.60;99.90;;;;;;5026000;28;20203;-69
2022/11/08 04:30:55;;;;;;;5.70;5.30;;;10.60;99.90;;;;;;5032344;28;20197;-69
2022/11/08 04:33:21;;;;;;;5.53;5.23;;;10.50;99.90;;;;;;5017079;28;20191;-68
2022/11/08 04:35:48;;;;;;;6.57;5.97;;;10.50;99.90;;;;;;5012704;28;20206;-68
2022/11/08 04:38:13;;;;;;;5.83;5.43;;;10.50;99.90;;;;;;5024763;28;20570;-68
2022/11/08 04:40:39;;;;;;;8.90;6.40;;;10.40;99.90;;;;;;5021845;28;20248;-67
2022/11/08 04:43:04;;;;;;;6.10;5.70;;;10.40;99.90;;;;;;5012683;28;20180;-68
2022/11/08 04:45:30;;;;;;;5.70;5.40;;;10.30;99.90;;;;;;5019271;28;20182;-68
2022/11/08 04:47:55;;;;;;;13.33;6.10;;;10.30;99.90;;;;;;5032176;28;20580;-68
2022/11/08 04:50:21;;;;;;;6.43;5.83;;;10.20;99.90;;;;;;5024880;28;20188;-68
2022/11/08 04:52:51;;;;;;;5.80;5.40;;;10.20;99.90;;;;;;5012666;28;20172;-68
2022/11/08 04:55:18;;;;;;;6.73;6.23;;;10.20;99.90;;;;;;5024130;28;20179;-69
2022/11/08 04:57:43;;;;;;;6.33;5.93;;;10.20;99.90;;;;;;5031607;28;20305;-68
2022/11/08 05:00:09;;;;;;;7.60;6.03;;;10.10;99.90;;;;;;5019896;28;20203;-68
2022/11/08 05:02:35;;;;;;;6.20;5.77;;;10.10;99.90;;;;;;5012131;28;20251;-67
2022/11/08 05:05:01;;;;;;;6.87;5.73;;;10.00;99.90;;;;;;5021107;28;20274;-68
2022/11/08 05:07:28;;;;;;;7.03;6.37;;;10.00;99.90;;;;;;5031540;28;20637;-68
2022/11/08 05:09:54;;;;;;;8.40;5.83;;;10.00;99.90;;;;;;4992022;28;20212;-68
2022/11/08 05:12:20;;;;;;;7.00;6.40;;;10.00;99.90;;;;;;4992348;28;20655;-68
2022/11/08 05:14:45;;;;;;;6.60;6.10;;;9.90;99.90;;;;;;5026994;28;20233;-68
2022/11/08 05:17:11;;;;;;;6.97;6.47;;;9.90;99.90;;;;;;5031561;28;20225;-68
2022/11/08 05:25:06;;;;;;;8.17;7.30;;;9.90;99.90;;;;;;5031832;28;20297;-68
2022/11/08 05:27:32;;;;;;;6.93;6.33;;;9.90;99.90;;;;;;5031812;28;20262;-68
2022/11/08 05:29:58;;;;;;;7.13;6.53;;;9.90;99.90;;;;;;5012623;28;20630;-68
2022/11/08 05:32:23;;;;;;;6.70;6.20;;;9.80;99.90;;;;;;5011715;28;20268;-68
2022/11/08 05:34:49;;;;;;;6.70;6.10;;;9.80;99.90;;;;;;5028214;28;20605;-68
2022/11/08 05:37:14;;;;;;;7.10;6.50;;;9.80;99.90;;;;;;5016732;28;20258;-68
2022/11/08 05:39:40;;;;;;;9.37;6.63;;;9.80;99.90;;;;;;5011313;28;20230;-67
2022/11/08 05:42:05;;;;;;;8.57;6.07;;;9.80;99.90;;;;;;5023796;28;20198;-67
2022/11/08 05:44:31;;;;;;;6.70;6.20;;;9.80;99.90;;;;;;5031307;28;20179;-68
2022/11/08 05:46:56;;;;;;;8.10;6.27;;;9.80;99.90;;;;;;5020569;28;20641;-68
2022/11/08 05:49:22;;;;;;;6.20;5.60;;;9.80;99.90;;;;;;5011455;28;20200;-67
2022/11/08 05:51:48;;;;;;;7.00;6.37;;;9.80;99.90;;;;;;5019031;28;20179;-67
2022/11/08 05:54:13;;;;;;;6.87;6.37;;;9.80;99.90;;;;;;5031209;28;20187;-68
2022/11/08 05:56:39;;;;;;;7.80;6.47;;;9.80;99.90;;;;;;5025989;28;20349;-68
2022/11/08 05:59:04;;;;;;;7.17;6.50;;;9.80;99.90;;;;;;5042839;28;20282;-67
2022/11/08 06:01:30;;;;;;;6.27;5.77;;;9.80;99.90;;;;;;5010071;28;20180;-67
2022/11/08 06:03:56;;;;;;;6.37;5.87;;;9.80;99.90;;;;;;5010286;28;20558;-68
2022/11/08 06:06:22;;;;;;;6.53;6.13;;;9.80;99.90;;;;;;5014176;28;20672;-67
2022/11/08 06:08:48;;;;;;;7.07;6.57;;;9.90;99.90;;;;;;5031110;28;20211;-68
2022/11/08 06:11:16;;;;;;;6.43;5.73;;;9.90;99.90;;;;;;5029242;28;20187;-67
2022/11/08 06:13:42;;;;;;;9.33;5.83;;;9.90;99.90;;;;;;5012928;28;20184;-69
2022/11/08 06:16:11;;;;;;;6.10;5.60;;;9.90;99.90;;;;;;5046286;28;20204;-68
2022/11/08 06:18:37;;;;;;;5.80;5.40;;;10.00;99.90;;;;;;4995951;28;20192;-68
2022/11/08 06:21:05;;;;;;;6.50;6.10;;;10.00;99.90;;;;;;4995252;28;20323;-67
2022/11/08 06:23:31;;;;;;;6.83;6.30;;;10.10;99.90;;;;;;5032681;28;20602;-67
2022/11/08 06:25:58;;;;;;;5.77;5.23;;;10.00;99.90;;;;;;5025247;28;20704;-68
2022/11/08 06:28:23;;;;;;;6.20;5.70;;;10.00;99.90;;;;;;5013656;28;20200;-68
2022/11/08 06:30:50;;;;;;;6.10;5.70;;;10.00;99.90;;;;;;5026040;28;20199;-68
2022/11/08 06:33:15;;;;;;;6.03;5.73;;;10.10;99.90;;;;;;5033759;28;20175;-68
2022/11/08 06:35:41;;;;;;;6.40;5.77;;;10.10;99.90;;;;;;5022040;28;20191;-68
2022/11/08 06:38:07;;;;;;;5.27;4.97;;;10.10;99.90;;;;;;5014742;28;20206;-68
2022/11/08 06:40:33;;;;;;;6.67;6.07;;;10.00;99.90;;;;;;5023501;28;20214;-68
2022/11/08 06:42:59;;;;;;;6.17;5.57;;;10.00;99.90;;;;;;5034501;28;20176;-68
2022/11/08 06:45:25;;;;;;;5.63;5.13;;;10.00;99.90;;;;;;5031377;28;20180;-68
2022/11/08 06:48:01;;;;;;;5.43;5.13;;;10.00;99.90;;;;;;5033205;28;20187;-68
2022/11/08 06:50:28;;;;;;;5.43;5.13;;;10.00;99.90;;;;;;5026633;28;20191;-68
2022/11/08 06:52:58;;;;;;;6.37;5.97;;;10.00;99.90;;;;;;5014841;28;20516;-68
2022/11/08 06:55:24;;;;;;;6.27;5.87;;;10.10;99.90;;;;;;5032983;28;20245;-69
2022/11/08 06:57:50;;;;;;;6.90;6.40;;;10.10;99.90;;;;;;5028037;28;20206;-68
2022/11/08 07:00:16;;;;;;;6.37;5.47;;;10.10;99.90;;;;;;5014071;28;20180;-68
2022/11/08 07:02:43;;;;;;;6.13;5.63;;;10.20;99.90;;;;;;5017007;28;20180;-69
2022/11/08 07:05:09;;;;;;;6.53;6.03;;;10.20;99.90;;;;;;5027278;28;20616;-69
2022/11/08 07:07:35;;;;;;;6.63;5.93;;;10.30;99.90;;;;;;5015991;28;20198;-68
2022/11/08 07:10:00;;;;;;;8.07;5.70;;;10.30;99.90;;;;;;5014398;28;20188;-66
2022/11/08 07:12:26;;;;;;;5.90;5.40;;;10.40;99.90;;;;;;5027232;28;20187;-67
2022/11/08 07:14:51;;;;;;;6.57;6.07;;;10.50;99.90;;;;;;5033662;28;20548;-68
2022/11/08 07:17:17;;;;;;;9.97;6.47;;;10.50;99.90;;;;;;5018158;28;20219;-68
2022/11/08 07:19:43;;;;;;;8.60;6.03;;;10.50;99.90;;;;;;5012280;28;20200;-68
2022/11/08 07:22:08;;;;;;;5.97;5.47;;;10.50;99.90;;;;;;5024129;28;20237;-67
2022/11/08 07:24:34;;;;;;;6.30;5.90;;;10.50;99.90;;;;;;5033592;28;20183;-67
2022/11/08 07:26:59;;;;;;;6.67;6.23;;;10.60;99.90;;;;;;5023205;28;20192;-70
2022/11/08 07:29:25;;;;;;;10.43;6.03;;;10.60;99.90;;;;;;5013642;28;20606;-67
2022/11/08 07:31:51;;;;;;;6.30;5.80;;;10.60;99.90;;;;;;5019260;28;20180;-68
2022/11/08 07:34:16;;;;;;;6.67;5.93;;;10.60;99.90;;;;;;5027380;28;20192;-68
2022/11/08 07:36:42;;;;;;;6.70;6.20;;;10.60;99.90;;;;;;5012333;28;20212;-68
2022/11/08 07:39:08;;;;;;;7.47;6.73;;;10.70;99.90;;;;;;5015766;28;20208;-68
2022/11/08 07:41:34;;;;;;;6.20;5.70;;;10.70;99.90;;;;;;5031876;28;20175;-68
2022/11/08 07:43:59;;;;;;;5.80;5.40;;;10.80;99.90;;;;;;5031866;28;20175;-68
2022/11/08 07:46:25;;;;;;;9.10;6.37;;;10.90;99.90;;;;;;5012139;28;20660;-68
2022/11/08 07:48:50;;;;;;;5.30;4.80;;;11.20;99.90;;;;;;5013478;28;20204;-68
2022/11/08 07:51:16;;;;;;;5.90;5.50;;;11.50;99.90;;;;;;5030302;28;20234;-68
2022/11/08 07:53:43;;;;;;;5.63;5.23;;;11.80;99.90;;;;;;5025336;28;20662;-67
2022/11/08 07:56:09;;;;;;;5.00;4.70;;;12.00;99.90;;;;;;5013106;28;20204;-68
2022/11/08 07:58:35;;;;;;;4.63;4.43;;;12.30;99.90;;;;;;5018696;28;20195;-68
2022/11/08 08:01:05;;;;;;;4.97;4.63;;;12.60;99.90;;;;;;5031298;28;20230;-67
2022/11/08 08:03:31;;;;;;;4.87;4.57;;;12.70;99.90;;;;;;5016848;28;20176;-68
2022/11/08 08:05:57;;;;;;;4.80;4.50;;;12.80;99.90;;;;;;5013046;28;20274;-68
2022/11/08 08:08:23;;;;;;;4.50;4.20;;;13.00;99.90;;;;;;5025332;28;20689;-68
2022/11/08 08:10:48;;;;;;;6.03;4.00;;;13.10;99.90;;;;;;5031294;28;20183;-68
2022/11/08 08:13:14;;;;;;;4.47;4.17;;;13.20;99.90;;;;;;5021679;28;20266;-68
2022/11/08 08:15:40;;;;;;;4.57;4.20;;;13.30;99.90;;;;;;5012267;28;20176;-68
2022/11/08 08:18:07;;;;;;;5.10;4.60;;;13.40;99.90;;;;;;5020221;28;20203;-68
2022/11/08 08:20:34;;;;;;;4.90;4.60;;;13.40;99.90;;;;;;5031072;28;20180;-68
2022/11/08 08:23:00;;;;;;;5.10;4.80;;;13.40;99.90;;;;;;5024590;28;20184;-68
2022/11/08 08:25:27;;;;;;;5.20;4.63;;;13.40;99.90;;;;;;5012650;28;20586;-69
2022/11/08 08:27:55;;;;;;;5.33;5.03;;;13.50;99.90;;;;;;5012618;28;20719;-69
2022/11/08 08:30:22;;;;;;;5.87;4.80;;;13.60;99.90;;;;;;5011118;28;20189;-68
2022/11/08 08:32:48;;;;;;;4.17;3.83;;;13.90;99.90;;;;;;5013770;28;20723;-68
2022/11/08 08:35:14;;;;;;;4.03;3.73;;;14.10;99.90;;;;;;5012460;28;20184;-69
2022/11/08 08:37:40;;;;;;;4.37;3.97;;;14.20;99.90;;;;;;5044025;28;20261;-68
2022/11/08 08:40:06;;;;;;;7.33;4.00;;;14.20;99.90;;;;;;5012228;28;20172;-68
2022/11/08 08:42:32;;;;;;;5.47;3.70;;;14.20;99.90;;;;;;5013926;28;20187;-69
2022/11/08 08:44:58;;;;;;;4.50;4.20;;;14.20;99.90;;;;;;5030643;28;20665;-68
2022/11/08 08:47:23;;;;;;;4.27;3.97;;;14.20;99.90;;;;;;5030315;28;20215;-68
2022/11/08 08:49:49;;;;;;;4.37;4.17;;;14.00;99.90;;;;;;5011867;28;20200;-69
2022/11/08 08:52:15;;;;;;;4.33;4.13;;;14.10;99.90;;;;;;5013197;28;20184;-69
2022/11/08 08:54:41;;;;;;;4.23;3.90;;;13.90;99.90;;;;;;5031793;28;20222;-68
2022/11/08 08:57:06;;;;;;;4.23;3.80;;;13.70;99.90;;;;;;5018141;28;20216;-67
2022/11/08 08:59:32;;;;;;;4.43;4.13;;;13.50;99.90;;;;;;5011292;28;20219;-67
2022/11/08 09:01:59;;;;;;;4.20;3.90;;;13.30;99.90;;;;;;5021715;28;20226;-67
2022/11/08 09:04:26;;;;;;;4.40;4.03;;;13.20;99.90;;;;;;5030461;28;20187;-67
2022/11/08 09:06:51;;;;;;;4.60;4.30;;;13.20;99.90;;;;;;5021686;28;20186;-68
2022/11/08 09:09:17;;;;;;;4.23;4.00;;;13.10;99.90;;;;;;5010177;28;20311;-68
2022/11/08 09:11:42;;;;;;;5.30;4.30;;;13.10;99.90;;;;;;5021402;28;20190;-68
2022/11/08 09:14:08;;;;;;;4.00;3.80;;;13.10;99.90;;;;;;5031482;28;20545;-69
2022/11/08 09:16:34;;;;;;;5.77;5.10;;;13.10;99.90;;;;;;5017055;28;20214;-68
2022/11/08 09:19:00;;;;;;;4.63;4.33;;;13.10;99.90;;;;;;5010468;28;20291;-69
2022/11/08 09:21:25;;;;;;;5.30;4.83;;;13.10;99.90;;;;;;5022372;28;20214;-68
2022/11/08 09:23:51;;;;;;;4.70;4.17;;;13.20;99.90;;;;;;5028661;28;20684;-68
2022/11/08 09:26:16;;;;;;;4.67;4.27;;;13.20;99.90;;;;;;5011621;28;20634;-68
2022/11/08 09:28:42;;;;;;;5.37;4.27;;;13.10;99.90;;;;;;5011066;28;20206;-69
2022/11/08 09:31:10;;;;;;;4.73;4.40;;;13.10;99.90;;;;;;5030943;28;20202;-68
2022/11/08 09:33:38;;;;;;;5.07;4.73;;;13.10;99.90;;;;;;5013902;28;20186;-68
2022/11/08 09:36:05;;;;;;;6.03;5.63;;;13.10;99.90;;;;;;5010410;28;20204;-68
2022/11/08 09:38:31;;;;;;;6.40;5.93;;;13.10;99.90;;;;;;5011800;28;20203;-68
2022/11/08 09:41:12;;;;;;;5.37;4.97;;;13.10;99.90;;;;;;5029082;28;20187;-68
2022/11/08 09:44:02;;;;;;;5.10;4.60;;;13.10;99.90;;;;;;5031728;28;20633;-69
2022/11/08 09:46:46;;;;;;;5.30;4.37;;;13.10;99.90;;;;;;4992075;28;20181;-68
2022/11/08 09:49:18;;;;;;;5.87;5.27;;;13.10;99.90;;;;;;4998667;28;20208;-68
2022/11/08 09:51:44;;;;;;;5.03;4.63;;;13.20;99.90;;;;;;5034457;28;20186;-68
2022/11/08 09:54:23;;;;;;;5.17;4.80;;;13.20;99.90;;;;;;5015426;28;20184;-68
2022/11/08 09:56:52;;;;;;;4.90;4.60;;;13.20;99.90;;;;;;5014657;28;20277;-69
2022/11/08 09:59:28;;;;;;;7.30;4.40;;;13.30;99.90;;;;;;5024618;28;20701;-68
2022/11/08 10:01:54;;;;;;;4.47;4.27;;;13.30;99.90;;;;;;5047224;28;20194;-68
2022/11/08 10:04:27;;;;;;;4.90;4.60;;;13.30;99.90;;;;;;5015402;28;20176;-68
2022/11/08 10:07:12;;;;;;;4.93;4.17;;;13.40;99.90;;;;;;5047186;28;20195;-69
2022/11/08 10:09:46;;;;;;;3.97;3.73;;;13.50;99.90;;;;;;4995247;28;20218;-68
2022/11/08 10:12:27;;;;;;;6.50;4.47;;;13.50;99.90;;;;;;4998973;28;20577;-68
2022/11/08 10:15:24;;;;;;;4.10;3.87;;;13.60;99.90;;;;;;5034566;28;20179;-68
2022/11/08 10:17:52;;;;;;;4.10;3.80;;;13.60;99.90;;;;;;5031931;28;20696;-68
2022/11/08 10:20:34;;;;;;;3.93;3.73;;;13.60;99.90;;;;;;5033137;28;20179;-68
2022/11/08 10:23:22;;;;;;;4.27;4.00;;;13.70;99.90;;;;;;5026388;28;20609;-68
2022/11/08 10:25:54;;;;;;;4.40;4.10;;;13.60;99.90;;;;;;5014941;28;20199;-68
2022/11/08 10:28:54;;;;;;;4.20;4.00;;;13.70;99.90;;;;;;5023133;28;20283;-69
2022/11/08 10:31:20;;;;;;;4.50;4.20;;;13.70;99.90;;;;;;5034445;28;20693;-69
2022/11/08 10:33:52;;;;;;;4.53;4.10;;;13.80;99.90;;;;;;5018540;28;20211;-68
2022/11/08 10:36:42;;;;;;;4.40;4.10;;;13.90;99.90;;;;;;5014570;28;20736;-68
2022/11/08 10:39:07;;;;;;;4.37;4.07;;;14.00;99.90;;;;;;5027351;28;20207;-68
2022/11/08 10:41:46;;;;;;;3.87;3.67;;;14.30;99.90;;;;;;5034383;28;20745;-67
2022/11/08 10:44:19;;;;;;;4.80;4.00;;;14.50;99.90;;;;;;5019592;28;20179;-68
2022/11/08 10:46:56;;;;;;;3.97;3.73;;;14.60;99.90;;;;;;5014714;28;20600;-68
2022/11/08 10:49:41;;;;;;;6.23;3.77;;;14.80;99.90;;;;;;5012954;28;20588;-68
2022/11/08 10:52:18;;;;;;;4.07;3.70;;;14.90;99.90;;;;;;5031548;28;20652;-68
2022/11/08 10:54:50;;;;;;;4.43;4.13;;;15.00;99.90;;;;;;5034164;28;20179;-67
2022/11/08 10:57:22;;;;;;;4.10;3.70;;;15.10;99.90;;;;;;5013860;28;20224;-68
2022/11/08 10:59:49;;;;;;;5.03;4.73;;;15.20;99.90;;;;;;5019455;28;20183;-67
2022/11/08 11:02:25;;;;;;;4.10;3.80;;;15.30;99.90;;;;;;5032601;28;20171;-68
2022/11/08 11:04:52;;;;;;;3.80;3.50;;;15.30;99.90;;;;;;5026710;28;20637;-67
2022/11/08 11:07:31;;;;;;;4.20;3.90;;;15.40;99.90;;;;;;5014099;28;20272;-67
2022/11/08 11:09:57;;;;;;;4.10;3.80;;;15.70;99.90;;;;;;5018474;28;20643;-67
2022/11/08 11:12:23;;;;;;;3.70;3.40;;;15.90;99.90;;;;;;5033831;28;20179;-67
2022/11/08 11:14:59;;;;;;;4.00;3.70;;;16.20;99.90;;;;;;5029174;28;20254;-67
2022/11/08 11:17:29;;;;;;;4.27;3.70;;;16.30;99.90;;;;;;5014099;28;20199;-69
2022/11/08 11:19:56;;;;;;;4.03;3.73;;;16.30;99.90;;;;;;5027646;28;20231;-68
2022/11/08 11:22:30;;;;;;;4.43;4.13;;;16.30;99.90;;;;;;5032687;28;20218;-68
2022/11/08 11:24:56;;;;;;;3.83;3.57;;;16.40;99.90;;;;;;5018738;28;20299;-68
2022/11/08 11:27:32;;;;;;;4.30;3.90;;;16.40;99.90;;;;;;5012739;28;20184;-68
2022/11/08 11:30:22;;;;;;;3.70;3.50;;;16.40;99.90;;;;;;5026606;28;20199;-68
2022/11/08 11:33:24;;;;;;;3.83;3.53;;;16.50;99.90;;;;;;5033657;28;20167;-69
2022/11/08 11:36:17;;;;;;;3.87;3.67;;;16.40;99.90;;;;;;4972568;28;20607;-68
2022/11/08 11:38:43;;;;;;;3.97;3.77;;;16.30;99.90;;;;;;5031200;28;20622;-69
2022/11/08 11:41:15;;;;;;;4.40;4.10;;;16.40;99.90;;;;;;5031917;28;20230;-69
2022/11/08 11:43:59;;;;;;;4.20;3.97;;;16.40;99.90;;;;;;5030157;28;20171;-68
2022/11/08 11:46:48;;;;;;;4.47;4.17;;;16.40;99.90;;;;;;5013687;28;20176;-68
2022/11/08 11:49:19;;;;;;;4.37;3.97;;;16.50;99.90;;;;;;5018576;28;20202;-68
2022/11/08 11:51:45;;;;;;;4.33;4.03;;;16.80;99.90;;;;;;5033310;28;20179;-69
2022/11/08 11:54:15;;;;;;;4.30;3.70;;;17.00;99.90;;;;;;5015075;28;20243;-69
2022/11/08 11:56:52;;;;;;;3.50;3.30;;;17.10;99.90;;;;;;5013274;28;20203;-68
2022/11/08 11:59:56;;;;;;;4.57;4.07;;;17.00;99.90;;;;;;5016742;28;20681;-68
2022/11/08 12:02:52;;;;;;;4.67;3.97;;;16.90;99.90;;;;;;5032829;28;20537;-68
2022/11/08 12:05:20;;;;;;;3.87;3.60;;;16.90;99.90;;;;;;5012086;28;20231;-68
2022/11/08 12:08:03;;;;;;;3.90;3.60;;;16.90;99.90;;;;;;5012004;28;20191;-69
2022/11/08 12:10:36;;;;;;;4.07;3.80;;;16.90;99.90;;;;;;5012436;28;20223;-68
2022/11/08 12:13:30;;;;;;;4.10;3.90;;;16.90;99.90;;;;;;5026124;28;20184;-68
2022/11/08 12:16:10;;;;;;;4.33;3.73;;;16.90;99.90;;;;;;5032808;28;20175;-67
2022/11/08 12:18:35;;;;;;;3.50;3.30;;;16.80;99.90;;;;;;5031068;28;20205;-68
2022/11/08 12:21:06;;;;;;;3.90;3.63;;;16.60;99.90;;;;;;5030609;28;20175;-67
2022/11/08 12:23:44;;;;;;;4.27;3.97;;;16.60;99.90;;;;;;5015865;28;20549;-68
2022/11/08 12:26:28;;;;;;;5.60;3.80;;;16.70;99.90;;;;;;5012750;28;20164;-68
2022/11/08 12:28:54;;;;;;;3.93;3.73;;;16.60;99.90;;;;;;5012838;28;20210;-68
2022/11/08 12:31:32;;;;;;;4.10;3.70;;;16.60;99.90;;;;;;5011016;28;20180;-68
2022/11/08 12:34:06;;;;;;;3.83;3.63;;;16.60;99.90;;;;;;5027929;28;20266;-68
2022/11/08 12:36:38;;;;;;;4.43;4.03;;;16.70;99.90;;;;;;5031499;28;20253;-69
2022/11/08 12:39:30;;;;;;;4.27;4.00;;;16.70;99.90;;;;;;5013225;28;20199;-69
2022/11/08 12:42:20;;;;;;;4.23;3.93;;;16.70;99.90;;;;;;5012652;28;20200;-68
2022/11/08 12:45:23;;;;;;;4.57;4.27;;;16.80;99.90;;;;;;5006740;28;20196;-68
2022/11/08 12:47:58;;;;;;;3.83;3.60;;;16.80;99.90;;;;;;5003613;28;20183;-69
2022/11/08 12:50:29;;;;;;;4.57;4.27;;;16.70;99.90;;;;;;5028082;28;20516;-68
2022/11/08 12:53:21;;;;;;;5.17;3.63;;;16.70;99.90;;;;;;5012409;28;20538;-67
2022/11/08 12:55:49;;;;;;;3.70;3.50;;;16.80;99.90;;;;;;5017881;28;20180;-67
2022/11/08 12:58:30;;;;;;;3.53;3.33;;;16.90;99.90;;;;;;5030513;28;20199;-66
2022/11/08 13:01:01;;;;;;;5.00;3.60;;;17.00;99.90;;;;;;5029728;28;20250;-67
2022/11/08 13:03:43;;;;;;;3.57;3.37;;;17.10;99.90;;;;;;5032038;28;20684;-67
2022/11/08 13:06:17;;;;;;;3.40;3.20;;;17.20;99.90;;;;;;5022889;28;20184;-67
2022/11/08 13:08:52;;;;;;;3.30;3.10;;;17.30;99.90;;;;;;5012665;28;20655;-67
2022/11/08 13:11:36;;;;;;;3.83;3.53;;;17.30;99.90;;;;;;5018826;28;20190;-67
2022/11/08 13:14:03;;;;;;;3.43;3.23;;;17.40;99.90;;;;;;5031060;28;20598;-67
2022/11/08 13:16:36;;;;;;;3.17;3.07;;;17.40;99.90;;;;;;5021031;28;20247;-67
2022/11/08 13:19:04;;;;;;;4.30;3.17;;;17.40;99.90;;;;;;5011767;28;20734;-66
2022/11/08 13:21:37;;;;;;;3.20;3.00;;;17.50;99.90;;;;;;5011589;28;20638;-67